createdAt,value
2018-08-31T00:00:00.639Z,15.83
2018-08-31T00:02:50.897Z,15.90
2018-08-31T00:05:49.262Z,15.27
2018-08-31T00:10:35.370Z,15.35
2018-08-31T00:13:03.433Z,15.70
2018-08-31T00:15:31.478Z,15.37
2018-08-31T00:17:59.550Z,14.50
2018-08-31T00:20:27.636Z,15.40
2018-08-31T00:29:09.249Z,14.53
2018-08-31T00:33:52.230Z,13.73
2018-08-31T00:38:31.291Z,13.73
2018-08-31T00:41:05.967Z,13.97
2018-08-31T00:48:37.415Z,14.17
2018-08-31T00:51:05.535Z,13.43
2018-08-31T00:53:33.643Z,14.30
2018-08-31T00:56:01.682Z,13.33
2018-08-31T01:00:57.250Z,13.03
2018-08-31T01:03:25.317Z,12.27
2018-08-31T01:05:53.416Z,11.73
2018-08-31T01:08:21.535Z,12.10
2018-08-31T01:10:49.586Z,11.95
2018-08-31T01:13:17.679Z,12.60
2018-08-31T01:15:45.783Z,12.80
2018-08-31T01:18:13.829Z,13.83
2018-08-31T01:20:41.905Z,13.10
2018-08-31T01:23:09.970Z,12.30
2018-08-31T01:25:38.030Z,11.20
2018-08-31T01:28:06.510Z,12.33
2018-08-31T01:30:34.569Z,10.23
2018-08-31T01:33:02.636Z,10.23
2018-08-31T01:37:58.096Z,10.40
2018-08-31T01:40:26.281Z,9.80
2018-08-31T01:42:54.333Z,9.57
2018-08-31T01:45:22.882Z,10.43
2018-08-31T01:47:50.955Z,11.67
2018-08-31T01:50:19.260Z,9.30
2018-08-31T01:52:47.392Z,8.80
2018-08-31T01:55:23.631Z,8.90
2018-08-31T01:57:51.850Z,10.40
2018-08-31T02:00:19.904Z,11.95
2018-08-31T02:02:47.941Z,9.30
2018-08-31T02:05:16.152Z,8.80
2018-08-31T02:07:44.190Z,11.23
2018-08-31T02:10:12.249Z,11.67
2018-08-31T02:12:40.310Z,11.60
2018-08-31T02:15:08.361Z,9.87
2018-08-31T02:17:36.430Z,8.57
2018-08-31T02:20:05.235Z,9.17
2018-08-31T02:22:33.278Z,8.33
2018-08-31T02:25:01.321Z,9.53
2018-08-31T02:27:29.368Z,8.40
2018-08-31T02:29:57.434Z,8.77
2018-08-31T02:32:25.485Z,10.00
2018-08-31T02:42:15.701Z,9.33
2018-08-31T02:47:11.259Z,7.75
2018-08-31T02:49:39.309Z,9.07
2018-08-31T02:52:07.353Z,10.23
2018-08-31T02:54:35.397Z,9.17
2018-08-31T02:57:03.467Z,10.10
2018-08-31T02:59:31.522Z,8.87
2018-08-31T03:29:01.499Z,10.77
2018-08-31T03:31:29.570Z,11.67
2018-08-31T03:33:57.598Z,8.33
2018-08-31T03:36:25.646Z,8.97
2018-08-31T03:38:53.693Z,7.70
2018-08-31T03:41:21.744Z,7.07
2018-08-31T03:43:49.777Z,7.00
2018-08-31T03:46:17.854Z,9.67
2018-08-31T03:53:40.683Z,8.43
2018-08-31T04:05:59.394Z,10.60
2018-08-31T04:13:22.317Z,7.70
2018-08-31T04:15:50.545Z,11.70
2018-08-31T04:18:18.581Z,8.67
2018-08-31T04:23:14.029Z,7.43
2018-08-31T04:25:42.053Z,9.77
2018-08-31T04:28:10.092Z,8.77
2018-08-31T04:30:38.160Z,9.30
2018-08-31T04:35:33.614Z,7.70
2018-08-31T04:38:01.966Z,8.33
2018-08-31T04:45:24.814Z,7.90
2018-08-31T04:47:52.895Z,10.13
2018-08-31T04:50:20.950Z,9.60
2018-08-31T04:52:48.978Z,8.33
2018-08-31T04:55:17.126Z,6.93
2018-08-31T04:57:45.176Z,6.77
2018-08-31T05:00:13.216Z,8.43
2018-08-31T05:02:41.246Z,6.00
2018-08-31T05:05:09.281Z,8.83
2018-08-31T05:07:38.667Z,8.00
2018-08-31T05:10:06.735Z,6.93
2018-08-31T05:12:34.788Z,11.50
2018-08-31T05:15:02.813Z,6.07
2018-08-31T05:17:30.840Z,8.80
2018-08-31T05:19:58.881Z,8.37
2018-08-31T05:22:26.984Z,7.90
2018-08-31T05:24:55.680Z,11.27
2018-08-31T05:27:23.703Z,7.80
2018-08-31T05:29:51.734Z,7.90
2018-08-31T05:34:47.267Z,8.57
2018-08-31T05:37:15.255Z,9.47
2018-08-31T05:39:43.290Z,7.75
2018-08-31T05:49:33.513Z,11.90
2018-08-31T05:52:01.588Z,7.47
2018-08-31T05:54:29.579Z,10.77
2018-08-31T05:56:57.670Z,7.97
2018-08-31T05:59:25.744Z,7.33
2018-08-31T06:01:53.830Z,7.90
2018-08-31T06:14:11.438Z,10.73
2018-08-31T06:16:39.493Z,9.07
2018-08-31T06:19:07.522Z,8.57
2018-08-31T06:21:35.568Z,9.70
2018-08-31T06:24:03.618Z,10.37
2018-08-31T06:26:31.689Z,10.70
2018-08-31T06:28:59.730Z,8.07
2018-08-31T06:31:27.774Z,11.47
2018-08-31T06:33:56.871Z,7.97
2018-08-31T06:36:24.875Z,7.23
2018-08-31T06:38:52.909Z,11.20
2018-08-31T06:41:21.138Z,7.93
2018-08-31T06:43:49.193Z,10.40
2018-08-31T06:46:17.221Z,13.17
2018-08-31T06:48:45.268Z,10.97
2018-08-31T06:51:13.484Z,7.53
2018-08-31T06:53:41.653Z,7.90
2018-08-31T06:56:09.722Z,6.80
2018-08-31T06:58:37.962Z,9.10
2018-08-31T07:06:00.790Z,9.37
2018-08-31T07:30:35.365Z,8.00
2018-08-31T07:45:20.378Z,10.53
2018-08-31T07:47:48.443Z,7.80
2018-08-31T08:05:00.835Z,7.43
2018-08-31T08:07:28.890Z,8.97
2018-08-31T08:09:56.926Z,7.23
2018-08-31T08:12:25.002Z,8.07
2018-08-31T08:14:53.128Z,10.10
2018-08-31T08:17:21.081Z,18.07
2018-08-31T08:19:49.109Z,12.47
2018-08-31T08:22:17.158Z,11.53
2018-08-31T08:24:45.204Z,12.67
2018-08-31T08:27:13.234Z,9.97
2018-08-31T08:32:08.682Z,10.33
2018-08-31T08:34:36.735Z,10.83
2018-08-31T08:37:04.784Z,9.83
2018-08-31T08:39:32.829Z,10.23
2018-08-31T08:42:00.913Z,11.20
2018-08-31T08:44:28.897Z,9.77
2018-08-31T08:46:56.954Z,10.90
2018-08-31T08:54:19.787Z,13.80
2018-08-31T08:56:47.836Z,14.07
2018-08-31T08:59:15.867Z,16.87
2018-08-31T09:01:43.910Z,11.67
2018-08-31T09:04:11.954Z,11.40
2018-08-31T09:09:08.224Z,10.77
2018-08-31T09:14:04.034Z,8.93
2018-08-31T09:28:49.146Z,9.40
2018-08-31T09:31:18.002Z,15.10
2018-08-31T09:33:46.070Z,11.53
2018-08-31T09:36:14.282Z,10.90
2018-08-31T09:38:42.857Z,11.43
2018-08-31T09:41:10.918Z,12.53
2018-08-31T09:43:38.954Z,12.13
2018-08-31T09:46:06.984Z,14.57
2018-08-31T09:48:35.030Z,14.17
2018-08-31T09:51:03.102Z,14.57
2018-08-31T09:53:31.188Z,17.50
2018-08-31T09:55:59.226Z,15.37
2018-08-31T09:58:27.306Z,14.70
2018-08-31T10:03:03.306Z,17.30
2018-08-31T10:05:31.350Z,13.97
2018-08-31T10:07:59.410Z,17.27
2018-08-31T10:10:27.442Z,20.90
2018-08-31T10:12:55.482Z,23.40
2018-08-31T10:15:23.530Z,20.77
2018-08-31T10:17:51.574Z,20.40
2018-08-31T10:20:19.621Z,17.53
2018-08-31T10:22:47.657Z,20.93
2018-08-31T10:25:15.695Z,22.77
2018-08-31T10:27:43.724Z,21.13
2018-08-31T10:30:11.824Z,20.77
2018-08-31T10:32:39.829Z,22.27
2018-08-31T10:35:07.865Z,21.37
2018-08-31T10:37:35.906Z,22.10
2018-08-31T10:40:03.961Z,19.87
2018-08-31T10:42:32.002Z,18.13
2018-08-31T10:45:00.064Z,21.80
2018-08-31T10:47:28.091Z,21.27
2018-08-31T10:49:56.145Z,25.77
2018-08-31T10:52:24.181Z,24.23
2018-08-31T10:54:52.229Z,26.03
2018-08-31T10:57:20.323Z,21.70
2018-08-31T10:59:48.370Z,23.07
2018-08-31T11:02:16.441Z,23.53
2018-08-31T11:04:44.511Z,22.83
2018-08-31T11:07:12.566Z,24.63
2018-08-31T11:09:40.617Z,23.53
2018-08-31T11:12:08.702Z,23.30
2018-08-31T11:14:36.734Z,23.57
2018-08-31T11:17:04.937Z,24.87
2018-08-31T11:19:32.989Z,25.43
2018-08-31T11:22:01.022Z,26.10
2018-08-31T11:24:29.081Z,22.77
2018-08-31T11:26:57.113Z,24.77
2018-08-31T11:29:25.166Z,22.40
2018-08-31T11:31:53.205Z,22.17
2018-08-31T11:34:21.244Z,25.90
2018-08-31T11:36:49.333Z,25.70
2018-08-31T11:39:17.368Z,24.57
2018-08-31T11:41:45.452Z,24.30
2018-08-31T11:44:13.474Z,23.87
2018-08-31T11:46:41.515Z,23.63
2018-08-31T11:49:09.544Z,22.83
2018-08-31T11:51:37.598Z,26.77
2018-08-31T11:54:05.686Z,23.30
2018-08-31T11:56:33.733Z,24.40
2018-08-31T11:59:01.779Z,25.40
2018-08-31T12:01:29.911Z,25.13
2018-08-31T12:03:57.869Z,24.60
2018-08-31T12:06:25.916Z,24.73
2018-08-31T12:08:53.965Z,25.03
2018-08-31T12:11:22.010Z,24.40
2018-08-31T12:13:50.055Z,23.50
2018-08-31T12:16:18.105Z,23.40
2018-08-31T12:18:46.159Z,24.13
2018-08-31T12:21:14.241Z,24.83
2018-08-31T12:23:42.285Z,23.80
2018-08-31T12:26:10.313Z,24.17
2018-08-31T12:28:38.354Z,23.23
2018-08-31T12:31:06.506Z,23.53
2018-08-31T12:33:34.599Z,23.30
2018-08-31T12:36:02.677Z,23.37
2018-08-31T12:38:30.878Z,22.70
2018-08-31T12:40:58.944Z,22.43
2018-08-31T12:43:26.973Z,22.50
2018-08-31T12:45:55.070Z,21.57
2018-08-31T12:48:23.125Z,21.37
2018-08-31T12:50:51.165Z,22.40
2018-08-31T12:53:19.227Z,25.57
2018-08-31T12:55:47.257Z,23.80
2018-08-31T12:58:15.297Z,23.50
2018-08-31T13:00:43.338Z,24.87
2018-08-31T13:03:11.383Z,24.97
2018-08-31T13:05:39.419Z,23.97
2018-08-31T13:08:07.466Z,24.00
2018-08-31T13:10:35.506Z,24.77
2018-08-31T13:13:03.550Z,24.27
2018-08-31T13:15:31.592Z,24.27
2018-08-31T13:17:59.632Z,23.60
2018-08-31T13:20:27.670Z,24.23
2018-08-31T13:22:55.720Z,24.83
2018-08-31T13:25:23.749Z,24.57
2018-08-31T13:27:58.202Z,26.13
2018-08-31T13:30:26.293Z,24.20
2018-08-31T13:32:54.334Z,24.80
2018-08-31T13:35:22.399Z,25.17
2018-08-31T13:37:50.484Z,23.23
2018-08-31T13:40:18.523Z,25.10
2018-08-31T13:42:46.570Z,25.03
2018-08-31T13:45:14.615Z,22.70
2018-08-31T13:47:42.679Z,20.63
2018-08-31T13:50:10.719Z,22.10
2018-08-31T13:52:38.795Z,21.93
2018-08-31T13:55:06.991Z,21.03
2018-08-31T13:57:35.051Z,22.17
2018-08-31T14:00:03.166Z,19.73
2018-08-31T14:02:31.235Z,21.70
2018-08-31T14:04:59.254Z,22.57
2018-08-31T14:07:27.299Z,19.83
2018-08-31T14:09:55.368Z,21.77
2018-08-31T14:12:23.422Z,20.17
2018-08-31T14:14:51.458Z,19.20
2018-08-31T14:17:19.503Z,19.63
2018-08-31T14:19:47.534Z,19.13
2018-08-31T14:22:15.578Z,19.87
2018-08-31T14:24:43.617Z,19.60
2018-08-31T14:27:11.663Z,19.47
2018-08-31T14:29:39.713Z,20.53
2018-08-31T14:32:07.733Z,19.80
2018-08-31T14:34:35.779Z,20.13
2018-08-31T14:37:03.814Z,18.97
2018-08-31T14:39:31.850Z,19.47
2018-08-31T14:41:59.902Z,19.37
2018-08-31T14:44:27.939Z,20.43
2018-08-31T14:46:56.002Z,21.20
2018-08-31T14:49:24.062Z,19.77
2018-08-31T14:51:52.093Z,20.00
2018-08-31T14:54:20.138Z,20.70
2018-08-31T14:56:48.165Z,21.03
2018-08-31T14:59:16.226Z,20.13
2018-08-31T15:01:44.270Z,19.93
2018-08-31T15:04:12.316Z,20.20
2018-08-31T15:06:40.343Z,20.70
2018-08-31T15:09:09.462Z,18.43
2018-08-31T15:11:37.558Z,18.93
2018-08-31T15:14:06.410Z,19.20
2018-08-31T15:16:34.442Z,20.40
2018-08-31T15:19:02.698Z,20.97
2018-08-31T15:21:30.758Z,20.70
2018-08-31T15:23:58.786Z,20.50
2018-08-31T15:26:26.837Z,20.43
2018-08-31T15:28:55.030Z,20.35
2018-08-31T15:31:23.650Z,21.30
2018-08-31T15:33:51.658Z,20.20
2018-08-31T15:36:19.722Z,20.20
2018-08-31T15:38:47.768Z,19.70
2018-08-31T15:41:15.940Z,20.53
2018-08-31T15:43:43.986Z,20.50
2018-08-31T15:46:18.554Z,19.77
2018-08-31T15:48:46.647Z,19.10
2018-08-31T15:51:14.693Z,20.80
2018-08-31T15:53:42.730Z,21.77
2018-08-31T15:56:10.836Z,19.00
2018-08-31T15:58:38.818Z,20.20
2018-08-31T16:01:06.872Z,20.10
2018-08-31T16:03:34.913Z,20.20
2018-08-31T16:06:02.951Z,19.20
2018-08-31T16:08:31.002Z,19.20
2018-08-31T16:10:59.054Z,20.63
2018-08-31T16:13:27.116Z,20.23
2018-08-31T16:15:55.154Z,19.63
2018-08-31T16:18:23.189Z,20.90
2018-08-31T16:20:51.330Z,20.03
2018-08-31T16:23:19.322Z,19.77
2018-08-31T16:25:47.353Z,19.77
2018-08-31T16:28:15.981Z,20.33
2018-08-31T16:30:44.018Z,20.87
2018-08-31T16:33:12.061Z,22.03
2018-08-31T16:35:40.093Z,19.90
2018-08-31T16:38:08.142Z,18.60
2018-08-31T16:40:36.199Z,18.47
2018-08-31T16:43:04.249Z,18.80
2018-08-31T16:45:32.302Z,17.67
2018-08-31T16:48:00.346Z,18.77
2018-08-31T16:50:28.390Z,17.63
2018-08-31T16:52:56.433Z,17.63
2018-08-31T16:55:24.462Z,17.83
2018-08-31T16:57:52.498Z,18.30
2018-08-31T17:00:20.534Z,18.57
2018-08-31T17:02:48.581Z,16.93
2018-08-31T17:05:16.622Z,17.43
2018-08-31T17:07:44.706Z,16.07
2018-08-31T17:10:12.706Z,16.07
2018-08-31T17:12:40.866Z,17.20
2018-08-31T17:15:08.910Z,15.77
2018-08-31T17:17:36.966Z,16.73
2018-08-31T17:20:05.907Z,15.93
2018-08-31T17:22:33.979Z,15.67
2018-08-31T17:25:02.022Z,15.83
2018-08-31T17:27:35.498Z,15.10
2018-08-31T17:30:09.405Z,15.83
2018-08-31T17:32:42.946Z,15.50
2018-08-31T17:35:16.458Z,15.67
2018-08-31T17:37:44.513Z,15.70
2018-08-31T17:40:12.602Z,15.20
2018-08-31T17:42:41.337Z,14.97
2018-08-31T17:45:10.370Z,14.83
2018-08-31T17:47:38.417Z,14.83
2018-08-31T17:50:07.510Z,13.77
2018-08-31T17:52:35.618Z,13.13
2018-08-31T17:55:03.671Z,14.53
2018-08-31T17:57:31.840Z,14.53
2018-08-31T17:59:59.874Z,14.93
2018-08-31T18:02:27.940Z,12.20
2018-08-31T18:04:55.996Z,12.13
2018-08-31T18:07:24.083Z,14.60
2018-08-31T18:09:52.110Z,13.03
2018-08-31T18:12:20.146Z,12.37
2018-08-31T18:14:49.460Z,12.10
2018-08-31T18:17:17.524Z,10.90
2018-08-31T18:19:45.677Z,11.73
2018-08-31T18:22:13.810Z,11.33
2018-08-31T18:24:41.864Z,10.47
2018-08-31T18:27:09.928Z,11.70
2018-08-31T18:29:37.954Z,9.10
2018-08-31T18:32:06.045Z,14.73
2018-08-31T18:34:34.122Z,10.67
2018-08-31T18:37:02.236Z,13.13
2018-08-31T18:39:30.334Z,11.37
2018-08-31T18:41:58.374Z,11.97
2018-08-31T18:44:26.421Z,10.37
2018-08-31T18:46:54.716Z,11.50
2018-08-31T18:49:22.731Z,10.40
2018-08-31T18:51:50.792Z,10.47
2018-08-31T18:54:18.882Z,10.00
2018-08-31T18:56:46.961Z,10.30
2018-08-31T18:59:15.022Z,9.77
2018-08-31T19:01:43.082Z,9.50
2018-08-31T19:04:11.167Z,11.13
2018-08-31T19:06:39.274Z,13.73
2018-08-31T19:09:08.065Z,10.53
2018-08-31T19:11:36.096Z,9.83
2018-08-31T19:14:04.427Z,11.93
2018-08-31T19:16:32.490Z,11.80
2018-08-31T19:19:00.569Z,11.03
2018-08-31T19:21:28.626Z,9.23
2018-08-31T19:23:56.691Z,14.93
2018-08-31T19:26:24.742Z,11.53
2018-08-31T19:28:52.819Z,10.73
2018-08-31T19:31:20.916Z,10.63
2018-08-31T19:33:48.965Z,10.10
2018-08-31T19:36:17.047Z,11.13
2018-08-31T19:38:45.097Z,13.63
2018-08-31T19:41:13.172Z,10.67
2018-08-31T19:43:41.177Z,10.60
2018-08-31T19:46:09.233Z,12.47
2018-08-31T19:48:37.291Z,10.70
2018-08-31T19:51:05.333Z,10.93
2018-08-31T19:53:33.394Z,14.67
2018-08-31T19:56:01.458Z,11.97
2018-08-31T19:58:29.508Z,12.00
2018-08-31T20:00:57.606Z,13.13
2018-08-31T20:03:25.651Z,11.70
2018-08-31T20:05:53.849Z,12.27
2018-08-31T20:08:21.898Z,12.20
2018-08-31T20:10:49.956Z,12.57
2018-08-31T20:13:18.302Z,12.43
2018-08-31T20:15:46.374Z,14.03
2018-08-31T20:18:14.405Z,11.90
2018-08-31T20:20:42.450Z,11.50
2018-08-31T20:23:10.536Z,12.70
2018-08-31T20:25:38.615Z,11.43
2018-08-31T20:28:06.749Z,14.70
2018-08-31T20:30:34.802Z,12.13
2018-08-31T20:33:02.846Z,12.47
2018-08-31T20:35:30.910Z,12.13
2018-08-31T20:37:58.942Z,12.43
2018-08-31T20:40:26.991Z,12.33
2018-08-31T20:42:55.057Z,13.03
2018-08-31T20:45:23.099Z,13.13
2018-08-31T20:47:51.464Z,15.10
2018-08-31T20:50:19.527Z,11.80
2018-08-31T20:52:47.618Z,14.03
2018-08-31T20:55:15.683Z,12.63
2018-08-31T20:57:43.758Z,12.70
2018-08-31T21:00:11.785Z,13.13
2018-08-31T21:02:39.821Z,13.00
2018-08-31T21:05:07.867Z,12.83
2018-08-31T21:07:35.933Z,12.30
2018-08-31T21:10:03.978Z,13.67
2018-08-31T21:12:32.030Z,15.57
2018-08-31T21:15:00.070Z,14.73
2018-08-31T21:17:28.118Z,15.00
2018-08-31T21:19:56.214Z,15.23
2018-08-31T21:22:24.251Z,16.10
2018-08-31T21:24:52.322Z,15.47
2018-08-31T21:27:20.358Z,15.33
2018-08-31T21:29:48.399Z,15.93
2018-08-31T21:32:16.557Z,15.70
2018-08-31T21:34:44.481Z,16.20
2018-08-31T21:37:12.527Z,15.67
2018-08-31T21:39:40.558Z,16.87
2018-08-31T21:42:08.826Z,16.00
2018-08-31T21:44:36.722Z,16.33
2018-08-31T21:47:04.763Z,16.83
2018-08-31T21:49:32.848Z,16.60
2018-08-31T21:52:00.978Z,17.13
2018-08-31T21:54:29.382Z,16.20
2018-08-31T21:56:57.429Z,15.73
2018-08-31T21:59:25.503Z,16.70
2018-08-31T22:01:53.551Z,16.93
2018-08-31T22:04:22.038Z,17.73
2018-08-31T22:06:50.110Z,17.60
2018-08-31T22:09:18.166Z,17.43
2018-08-31T22:11:46.214Z,16.90
2018-08-31T22:14:14.254Z,16.63
2018-08-31T22:16:42.323Z,16.57
2018-08-31T22:19:10.377Z,17.50
2018-08-31T22:21:38.425Z,16.37
2018-08-31T22:24:06.486Z,17.40
2018-08-31T22:26:34.534Z,16.47
2018-08-31T22:29:02.575Z,17.47
2018-08-31T22:31:30.610Z,16.40
2018-08-31T22:33:58.647Z,15.73
2018-08-31T22:36:26.677Z,15.17
2018-08-31T22:38:54.761Z,14.97
2018-08-31T22:41:22.815Z,13.87
2018-08-31T22:43:51.924Z,14.07
2018-08-31T22:46:21.409Z,14.37
2018-08-31T22:48:50.177Z,14.30
2018-08-31T22:51:18.646Z,13.60
2018-08-31T22:53:46.811Z,17.23
2018-08-31T22:56:14.839Z,14.93
2018-08-31T22:58:43.121Z,15.03
2018-08-31T23:01:11.166Z,20.47
2018-08-31T23:03:39.218Z,15.83
2018-08-31T23:06:07.306Z,16.20
2018-08-31T23:08:35.362Z,16.40
2018-08-31T23:11:03.406Z,16.70
2018-08-31T23:13:31.449Z,16.53
2018-08-31T23:15:59.508Z,17.13
2018-08-31T23:18:27.581Z,17.67
2018-08-31T23:20:55.627Z,15.83
2018-08-31T23:23:33.042Z,17.60
2018-08-31T23:26:01.230Z,16.30
2018-08-31T23:28:29.306Z,16.83
2018-08-31T23:30:57.342Z,16.50
2018-08-31T23:33:25.394Z,15.70
2018-08-31T23:35:53.486Z,18.93
2018-08-31T23:38:21.482Z,15.90
2018-08-31T23:40:49.527Z,16.17
2018-08-31T23:43:17.567Z,18.17
2018-08-31T23:45:45.606Z,16.60
2018-08-31T23:48:13.646Z,17.70
2018-08-31T23:50:41.698Z,17.37
2018-08-31T23:53:09.750Z,17.77
2018-08-31T23:55:37.794Z,19.97
2018-08-31T23:58:05.899Z,20.80
